createdAt,value
2017-04-16T00:00:19.906Z,67.20
2017-04-16T00:01:19.270Z,67.30
2017-04-16T00:02:18.843Z,67.50
2017-04-16T00:03:18.003Z,66.60
2017-04-16T00:04:17.139Z,66.60
2017-04-16T00:05:16.280Z,67.80
2017-04-16T00:06:15.439Z,68.60
2017-04-16T00:07:14.771Z,69.80
2017-04-16T00:08:13.948Z,69.70
2017-04-16T00:09:13.148Z,70.00
2017-04-16T00:10:12.358Z,70.10
2017-04-16T00:11:11.511Z,69.40
2017-04-16T00:12:10.659Z,69.70
2017-04-16T00:13:10.610Z,69.90
2017-04-16T00:14:09.761Z,69.60
2017-04-16T00:15:08.916Z,69.40
2017-04-16T00:16:08.062Z,69.60
2017-04-16T00:17:07.211Z,69.80
2017-04-16T00:18:07.087Z,69.70
2017-04-16T00:19:06.282Z,70.50
2017-04-16T00:20:05.454Z,70.00
2017-04-16T00:21:05.052Z,70.30
2017-04-16T00:22:04.203Z,70.40
2017-04-16T00:23:03.371Z,70.50
2017-04-16T00:24:02.533Z,71.00
2017-04-16T00:25:01.894Z,70.20
2017-04-16T00:26:01.055Z,70.00
2017-04-16T00:27:00.200Z,70.40
2017-04-16T00:27:59.384Z,70.40
2017-04-16T00:28:58.567Z,70.20
2017-04-16T00:29:57.723Z,70.30
2017-04-16T00:30:57.054Z,70.50
2017-04-16T00:31:56.205Z,70.30
2017-04-16T00:32:55.362Z,70.40
2017-04-16T00:33:54.515Z,70.40
2017-04-16T00:34:53.671Z,70.50
2017-04-16T00:35:52.819Z,70.60
2017-04-16T00:36:51.999Z,70.20
2017-04-16T00:37:51.188Z,69.50
2017-04-16T00:38:51.081Z,69.50
2017-04-16T00:39:50.214Z,69.70
2017-04-16T00:40:49.359Z,69.70
2017-04-16T00:41:48.514Z,69.50
2017-04-16T00:42:47.684Z,69.30
2017-04-16T00:43:46.864Z,69.40
2017-04-16T00:44:46.135Z,69.40
2017-04-16T00:45:45.283Z,69.20
2017-04-16T00:46:44.464Z,68.90
2017-04-16T00:47:43.630Z,69.10
2017-04-16T00:48:42.794Z,68.70
2017-04-16T00:49:41.982Z,68.40
2017-04-16T00:50:41.167Z,68.40
2017-04-16T00:51:40.310Z,68.60
2017-04-16T00:52:39.463Z,68.80
2017-04-16T00:53:38.632Z,68.30
2017-04-16T00:54:37.783Z,68.30
2017-04-16T00:55:36.981Z,68.60
2017-04-16T00:56:36.119Z,68.60
2017-04-16T00:57:36.015Z,68.70
2017-04-16T00:58:35.232Z,69.10
2017-04-16T00:59:34.826Z,69.20
2017-04-16T01:00:39.429Z,69.10
2017-04-16T01:01:43.982Z,69.20
2017-04-16T01:02:43.124Z,69.30
2017-04-16T01:03:42.302Z,69.40
2017-04-16T01:04:41.554Z,69.80
2017-04-16T01:05:40.743Z,69.70
2017-04-16T01:06:39.883Z,69.70
2017-04-16T01:07:39.775Z,69.60
2017-04-16T01:08:39.038Z,69.30
2017-04-16T01:09:38.246Z,69.20
2017-04-16T01:10:37.394Z,69.00
2017-04-16T01:11:36.575Z,68.80
2017-04-16T01:12:36.038Z,69.10
2017-04-16T01:13:35.231Z,69.40
2017-04-16T01:14:34.726Z,69.90
2017-04-16T01:15:33.867Z,69.90
2017-04-16T01:16:33.045Z,70.80
2017-04-16T01:17:33.346Z,69.90
2017-04-16T01:18:32.496Z,69.50
2017-04-16T01:19:31.640Z,69.60
2017-04-16T01:20:31.299Z,69.80
2017-04-16T01:21:30.462Z,69.60
2017-04-16T01:22:29.711Z,69.90
2017-04-16T01:23:28.871Z,69.80
2017-04-16T01:24:28.024Z,70.10
2017-04-16T01:25:27.915Z,70.00
2017-04-16T01:26:27.127Z,69.60
2017-04-16T01:27:26.343Z,69.30
2017-04-16T01:28:25.523Z,69.10
2017-04-16T01:29:24.715Z,68.90
2017-04-16T01:30:23.882Z,68.80
2017-04-16T01:31:23.088Z,69.10
2017-04-16T01:32:22.508Z,68.80
2017-04-16T01:33:21.670Z,68.70
2017-04-16T01:34:20.914Z,68.40
2017-04-16T01:35:20.071Z,68.50
2017-04-16T01:36:19.230Z,69.00
2017-04-16T01:37:18.419Z,68.70
2017-04-16T01:38:17.600Z,69.10
2017-04-16T01:39:16.795Z,69.40
2017-04-16T01:40:15.966Z,69.40
2017-04-16T01:41:15.185Z,69.20
2017-04-16T01:42:14.425Z,68.80
2017-04-16T01:43:14.338Z,69.30
2017-04-16T01:44:13.553Z,68.60
2017-04-16T01:45:12.718Z,69.20
2017-04-16T01:46:12.671Z,69.20
2017-04-16T01:47:11.814Z,69.30
2017-04-16T01:48:10.963Z,69.50
2017-04-16T01:49:10.140Z,69.50
2017-04-16T01:50:09.306Z,69.60
2017-04-16T01:51:08.439Z,69.60
2017-04-16T01:52:07.571Z,69.30
2017-04-16T01:53:06.750Z,69.60
2017-04-16T01:54:05.927Z,69.80
2017-04-16T01:55:05.065Z,70.50
2017-04-16T01:56:04.286Z,70.00
2017-04-16T01:57:03.482Z,70.10
2017-04-16T01:58:02.682Z,70.70
2017-04-16T01:59:02.150Z,70.60
2017-04-16T02:00:01.389Z,70.30
2017-04-16T02:01:00.569Z,70.00
2017-04-16T02:01:59.788Z,70.00
2017-04-16T02:02:58.966Z,70.10
2017-04-16T02:03:58.150Z,70.20
2017-04-16T02:04:58.443Z,70.30
2017-04-16T02:05:57.654Z,70.10
2017-04-16T02:06:56.817Z,70.20
2017-04-16T02:07:56.021Z,70.20
2017-04-16T02:08:55.191Z,70.00
2017-04-16T02:09:54.406Z,69.50
2017-04-16T02:10:53.585Z,69.80
2017-04-16T02:11:53.009Z,69.70
2017-04-16T02:12:52.166Z,69.80
2017-04-16T02:13:51.337Z,70.00
2017-04-16T02:14:50.493Z,69.70
2017-04-16T02:15:50.441Z,69.00
2017-04-16T02:16:49.623Z,69.00
2017-04-16T02:17:48.874Z,68.90
2017-04-16T02:18:48.785Z,68.80
2017-04-16T02:19:48.690Z,69.10
2017-04-16T02:20:47.851Z,69.20
2017-04-16T02:21:47.054Z,69.00
2017-04-16T02:22:47.094Z,68.30
2017-04-16T02:23:46.270Z,68.30
2017-04-16T02:24:45.435Z,69.30
2017-04-16T02:25:44.590Z,68.80
2017-04-16T02:26:43.786Z,68.70
2017-04-16T02:27:42.935Z,68.30
2017-04-16T02:28:42.574Z,67.90
2017-04-16T02:29:41.759Z,67.50
2017-04-16T02:30:40.935Z,67.70
2017-04-16T02:31:40.118Z,67.20
2017-04-16T02:32:39.281Z,67.00
2017-04-16T02:33:38.449Z,67.20
2017-04-16T02:34:37.654Z,67.30
2017-04-16T02:35:36.810Z,67.00
2017-04-16T02:36:36.714Z,67.20
2017-04-16T02:37:36.627Z,66.90
2017-04-16T02:38:35.819Z,67.60
2017-04-16T02:39:35.717Z,67.20
2017-04-16T02:40:35.641Z,67.50
2017-04-16T02:41:35.042Z,67.90
2017-04-16T02:42:34.210Z,67.30
2017-04-16T02:43:34.105Z,67.30
2017-04-16T02:44:33.294Z,67.30
2017-04-16T02:45:33.198Z,66.90
2017-04-16T02:46:33.065Z,66.70
2017-04-16T02:47:32.194Z,66.70
2017-04-16T02:48:32.071Z,66.80
2017-04-16T02:49:31.306Z,66.80
2017-04-16T02:50:30.481Z,66.40
2017-04-16T02:51:29.746Z,66.60
2017-04-16T02:52:28.953Z,66.50
2017-04-16T02:53:28.122Z,66.70
2017-04-16T02:54:27.306Z,66.40
2017-04-16T02:55:26.517Z,66.90
2017-04-16T02:56:26.414Z,65.90
2017-04-16T02:57:26.358Z,65.90
2017-04-16T02:58:25.526Z,65.80
2017-04-16T02:59:24.692Z,65.50
2017-04-16T03:00:24.636Z,65.40
2017-04-16T03:01:23.889Z,65.20
2017-04-16T03:02:23.772Z,65.00
2017-04-16T03:04:23.184Z,64.80
2017-04-16T03:05:22.374Z,64.40
2017-04-16T03:06:21.535Z,64.70
2017-04-16T03:07:20.711Z,64.90
2017-04-16T03:08:19.876Z,65.00
2017-04-16T03:09:19.103Z,65.00
2017-04-16T03:10:18.302Z,65.00
2017-04-16T03:11:17.482Z,65.00
2017-04-16T03:12:16.696Z,65.90
2017-04-16T03:13:15.855Z,65.20
2017-04-16T03:14:15.071Z,65.20
2017-04-16T03:15:15.009Z,65.40
2017-04-16T03:16:14.182Z,66.40
2017-04-16T03:17:13.365Z,66.10
2017-04-16T03:18:12.570Z,66.50
2017-04-16T03:19:12.706Z,66.60
2017-04-16T03:20:11.870Z,66.60
2017-04-16T03:21:11.173Z,66.80
2017-04-16T03:22:10.332Z,67.00
2017-04-16T03:23:09.505Z,67.50
2017-04-16T03:24:09.424Z,67.70
2017-04-16T03:25:08.593Z,67.80
2017-04-16T03:26:08.521Z,68.00
2017-04-16T03:27:07.723Z,68.30
2017-04-16T03:28:07.359Z,68.40
2017-04-16T03:29:06.515Z,68.40
2017-04-16T03:30:05.679Z,68.60
2017-04-16T03:31:04.838Z,68.40
2017-04-16T03:32:03.986Z,68.50
2017-04-16T03:33:03.195Z,68.60
2017-04-16T03:34:02.363Z,68.60
2017-04-16T03:35:01.529Z,68.70
2017-04-16T03:36:00.697Z,68.70
2017-04-16T03:36:59.886Z,68.80
2017-04-16T03:37:59.033Z,68.80
2017-04-16T03:38:58.205Z,68.80
2017-04-16T03:39:57.387Z,68.50
2017-04-16T03:40:56.537Z,68.60
2017-04-16T03:41:55.712Z,68.40
2017-04-16T03:42:54.873Z,68.50
2017-04-16T03:43:54.004Z,68.50
2017-04-16T03:44:53.125Z,68.50
2017-04-16T03:45:52.714Z,68.60
2017-04-16T03:46:52.573Z,68.40
2017-04-16T03:47:52.450Z,68.30
2017-04-16T03:48:51.588Z,68.40
2017-04-16T03:49:51.131Z,68.50
2017-04-16T03:50:50.237Z,68.30
2017-04-16T03:51:50.090Z,68.10
2017-04-16T03:52:49.190Z,68.20
2017-04-16T03:53:48.286Z,68.40
2017-04-16T03:54:47.397Z,69.30
2017-04-16T03:55:46.542Z,69.50
2017-04-16T03:56:45.661Z,69.60
2017-04-16T03:57:44.775Z,69.20
2017-04-16T03:58:43.879Z,69.40
2017-04-16T03:59:42.990Z,69.10
2017-04-16T04:00:42.834Z,69.50
2017-04-16T04:01:42.917Z,69.40
2017-04-16T04:02:42.021Z,69.50
2017-04-16T04:03:41.126Z,69.20
2017-04-16T04:04:40.274Z,69.30
2017-04-16T04:05:39.377Z,69.10
2017-04-16T04:06:38.484Z,69.10
2017-04-16T04:07:37.614Z,69.10
2017-04-16T04:08:36.885Z,69.20
2017-04-16T04:09:35.988Z,69.00
2017-04-16T04:10:35.092Z,69.60
2017-04-16T04:11:34.197Z,70.10
2017-04-16T04:12:33.341Z,70.30
2017-04-16T04:13:32.457Z,70.30
2017-04-16T04:14:31.594Z,70.50
2017-04-16T04:15:30.722Z,70.60
2017-04-16T04:16:29.828Z,70.70
2017-04-16T04:17:28.954Z,70.90
2017-04-16T04:18:28.090Z,71.00
2017-04-16T04:19:27.226Z,70.90
2017-04-16T04:20:26.657Z,70.80
2017-04-16T04:21:25.777Z,70.90
2017-04-16T04:22:24.901Z,71.20
2017-04-16T04:23:24.030Z,71.70
2017-04-16T04:24:23.157Z,72.10
2017-04-16T04:25:22.293Z,72.70
2017-04-16T04:26:21.411Z,72.70
2017-04-16T04:27:21.293Z,72.90
2017-04-16T04:28:20.411Z,72.90
2017-04-16T04:29:19.518Z,72.80
2017-04-16T04:30:18.758Z,72.60
2017-04-16T04:31:17.866Z,72.40
2017-04-16T04:32:17.721Z,72.30
2017-04-16T04:33:16.836Z,72.00
2017-04-16T04:34:15.941Z,72.00
2017-04-16T04:35:15.784Z,71.90
2017-04-16T04:36:15.017Z,72.00
2017-04-16T04:37:14.122Z,71.80
2017-04-16T04:38:13.965Z,72.20
2017-04-16T04:39:13.121Z,72.00
2017-04-16T04:40:12.325Z,72.60
2017-04-16T04:41:11.497Z,72.80
2017-04-16T04:42:11.099Z,72.70
2017-04-16T04:43:10.285Z,72.70
2017-04-16T04:44:09.394Z,72.80
2017-04-16T04:45:08.508Z,72.30
2017-04-16T04:46:07.626Z,72.30
2017-04-16T04:47:07.469Z,71.90
2017-04-16T04:48:06.617Z,71.80
2017-04-16T04:49:06.461Z,71.50
2017-04-16T04:50:05.568Z,71.30
2017-04-16T04:51:04.679Z,71.30
2017-04-16T04:52:03.821Z,71.30
2017-04-16T04:53:02.993Z,71.00
2017-04-16T04:54:02.125Z,70.20
2017-04-16T04:55:01.238Z,70.10
2017-04-16T04:56:00.349Z,69.60
2017-04-16T04:56:59.481Z,69.70
2017-04-16T04:57:58.593Z,69.50
2017-04-16T04:58:57.754Z,69.70
2017-04-16T04:59:56.913Z,69.50
2017-04-16T05:00:56.053Z,69.50
2017-04-16T05:01:55.907Z,70.00
2017-04-16T05:02:55.309Z,69.80
2017-04-16T05:03:55.541Z,69.80
2017-04-16T05:04:54.653Z,69.90
2017-04-16T05:05:54.525Z,70.00
2017-04-16T05:06:53.642Z,69.70
2017-04-16T05:07:52.750Z,69.10
2017-04-16T05:08:51.861Z,69.40
2017-04-16T05:09:50.995Z,69.50
2017-04-16T05:10:50.096Z,69.70
2017-04-16T05:11:49.224Z,69.80
2017-04-16T05:12:48.335Z,69.50
2017-04-16T05:13:47.444Z,69.10
2017-04-16T05:14:47.285Z,69.30
2017-04-16T05:15:46.396Z,69.20
2017-04-16T05:16:45.505Z,69.00
2017-04-16T05:17:44.653Z,69.00
2017-04-16T05:18:43.769Z,69.10
2017-04-16T05:19:42.882Z,68.70
2017-04-16T05:20:42.724Z,68.70
2017-04-16T05:21:41.829Z,68.50
2017-04-16T05:22:40.939Z,68.40
2017-04-16T05:23:40.085Z,68.20
2017-04-16T05:24:39.201Z,67.80
2017-04-16T05:25:39.061Z,67.50
2017-04-16T05:26:38.174Z,67.30
2017-04-16T05:27:37.278Z,67.60
2017-04-16T05:28:37.138Z,67.40
2017-04-16T05:29:36.437Z,67.50
2017-04-16T05:30:35.540Z,67.10
2017-04-16T05:31:34.655Z,67.10
2017-04-16T05:32:33.757Z,67.10
2017-04-16T05:33:32.875Z,67.00
2017-04-16T05:34:31.993Z,66.80
2017-04-16T05:35:31.937Z,66.70
2017-04-16T05:36:31.310Z,66.50
2017-04-16T05:37:30.422Z,66.00
2017-04-16T05:38:29.530Z,65.90
2017-04-16T05:39:28.641Z,65.70
2017-04-16T05:40:27.788Z,65.60
2017-04-16T05:41:26.893Z,65.70
2017-04-16T05:42:26.008Z,65.70
2017-04-16T05:43:25.857Z,65.40
2017-04-16T05:44:24.969Z,65.10
2017-04-16T05:45:24.081Z,65.50
2017-04-16T05:46:23.968Z,65.40
2017-04-16T05:47:23.081Z,65.60
2017-04-16T05:48:22.201Z,65.50
2017-04-16T05:49:21.313Z,65.20
2017-04-16T05:50:20.450Z,65.30
2017-04-16T05:51:19.557Z,65.00
2017-04-16T05:52:18.828Z,65.50
2017-04-16T05:53:17.933Z,65.40
2017-04-16T05:54:17.045Z,65.10
2017-04-16T05:55:16.153Z,65.00
2017-04-16T05:56:15.257Z,65.10
2017-04-16T05:57:15.122Z,65.00
2017-04-16T05:58:14.566Z,64.80
2017-04-16T05:59:13.677Z,65.10
2017-04-16T06:00:12.782Z,65.40
2017-04-16T06:01:11.889Z,65.60
2017-04-16T06:02:10.997Z,65.90
2017-04-16T06:03:10.117Z,66.20
2017-04-16T06:04:09.386Z,66.20
2017-04-16T06:05:08.494Z,65.80
2017-04-16T06:06:07.597Z,66.60
2017-04-16T06:07:06.710Z,66.60
2017-04-16T06:08:05.817Z,66.30
2017-04-16T06:09:06.000Z,66.20
2017-04-16T06:10:05.165Z,66.40
2017-04-16T06:11:04.281Z,66.10
2017-04-16T06:12:03.390Z,66.00
2017-04-16T06:13:02.505Z,66.00
2017-04-16T06:14:01.614Z,66.10
2017-04-16T06:15:00.725Z,66.40
2017-04-16T06:15:59.865Z,66.30
2017-04-16T06:16:58.974Z,66.60
2017-04-16T06:17:58.126Z,67.00
2017-04-16T06:18:57.294Z,66.70
2017-04-16T06:19:57.181Z,65.90
2017-04-16T06:20:56.301Z,66.40
2017-04-16T06:21:55.421Z,66.60
2017-04-16T06:22:54.528Z,66.30
2017-04-16T06:23:53.634Z,66.10
2017-04-16T06:24:53.406Z,67.00
2017-04-16T06:25:52.508Z,66.50
2017-04-16T06:26:51.617Z,66.70
2017-04-16T06:27:50.718Z,66.30
2017-04-16T06:28:49.829Z,66.20
2017-04-16T06:29:48.946Z,66.10
2017-04-16T06:30:48.177Z,66.30
2017-04-16T06:31:47.286Z,66.30
2017-04-16T06:32:46.405Z,66.90
2017-04-16T06:33:45.521Z,66.40
2017-04-16T06:34:45.367Z,66.50
2017-04-16T06:35:44.495Z,66.90
2017-04-16T06:36:43.621Z,66.60
2017-04-16T06:37:42.724Z,66.50
2017-04-16T06:38:42.190Z,66.60
2017-04-16T06:39:41.309Z,66.40
2017-04-16T06:40:41.166Z,65.80
2017-04-16T06:41:40.351Z,65.50
2017-04-16T06:42:40.194Z,65.50
2017-04-16T06:43:39.297Z,64.60
2017-04-16T06:44:38.430Z,65.10
2017-04-16T06:45:38.283Z,64.80
2017-04-16T06:46:37.391Z,65.10
2017-04-16T06:47:36.533Z,65.10
2017-04-16T06:48:35.778Z,64.60
2017-04-16T06:49:35.063Z,64.10
2017-04-16T06:50:34.206Z,65.00
2017-04-16T06:51:33.678Z,64.40
2017-04-16T06:52:32.784Z,64.50
2017-04-16T06:53:31.901Z,64.70
2017-04-16T06:54:31.021Z,65.40
2017-04-16T06:55:30.133Z,66.00
2017-04-16T06:56:29.238Z,65.50
2017-04-16T06:57:28.349Z,65.60
2017-04-16T06:58:27.469Z,65.90
2017-04-16T06:59:27.313Z,65.60
2017-04-16T07:00:26.425Z,65.30
2017-04-16T07:01:25.533Z,65.40
2017-04-16T07:02:25.377Z,65.40
2017-04-16T07:03:24.485Z,65.10
2017-04-16T07:04:23.599Z,65.40
2017-04-16T07:05:22.720Z,65.40
2017-04-16T07:06:21.865Z,64.70
2017-04-16T07:07:21.456Z,65.10
2017-04-16T07:08:20.560Z,65.00
2017-04-16T07:09:19.661Z,64.80
2017-04-16T07:10:18.865Z,65.00
2017-04-16T07:11:17.969Z,65.70
2017-04-16T07:12:17.165Z,64.70
2017-04-16T07:13:16.277Z,63.90
2017-04-16T07:14:15.378Z,64.70
2017-04-16T07:15:14.482Z,65.00
2017-04-16T07:16:14.329Z,65.10
2017-04-16T07:17:13.434Z,65.40
2017-04-16T07:18:12.585Z,65.80
2017-04-16T07:19:11.697Z,65.40
2017-04-16T07:20:10.848Z,64.50
2017-04-16T07:21:10.865Z,64.90
2017-04-16T07:22:09.965Z,64.90
2017-04-16T07:23:09.121Z,65.10
2017-04-16T07:24:09.008Z,65.10
2017-04-16T07:25:08.845Z,65.30
2017-04-16T07:26:08.025Z,65.40
2017-04-16T07:27:07.253Z,65.60
2017-04-16T07:28:06.400Z,65.50
2017-04-16T07:29:05.585Z,66.00
2017-04-16T07:30:05.497Z,65.60
2017-04-16T07:31:04.634Z,65.10
2017-04-16T07:32:03.774Z,65.00
2017-04-16T07:33:02.917Z,65.10
2017-04-16T07:34:02.049Z,65.00
2017-04-16T07:35:01.188Z,64.50
2017-04-16T07:36:01.013Z,64.10
2017-04-16T07:37:01.530Z,63.80
2017-04-16T07:38:01.574Z,64.30
2017-04-16T07:39:01.685Z,64.40
2017-04-16T07:40:11.591Z,64.30
2017-04-16T07:42:26.111Z,63.90
2017-04-16T07:43:28.090Z,63.70
2017-04-16T07:44:30.069Z,63.10
2017-04-16T07:45:29.269Z,63.60
2017-04-16T07:46:28.465Z,62.80
2017-04-16T07:47:27.613Z,63.50
2017-04-16T07:48:26.769Z,62.70
2017-04-16T07:49:25.918Z,62.60
2017-04-16T07:50:25.057Z,62.40
2017-04-16T07:51:24.193Z,62.30
2017-04-16T07:52:23.350Z,62.10
2017-04-16T07:53:22.474Z,62.20
2017-04-16T07:54:21.613Z,62.40
2017-04-16T07:55:21.474Z,62.30
2017-04-16T07:56:20.582Z,62.50
2017-04-16T07:57:19.693Z,63.10
2017-04-16T07:58:18.854Z,62.40
2017-04-16T07:59:17.965Z,63.00
2017-04-16T08:00:17.819Z,62.90
2017-04-16T08:01:16.930Z,63.50
2017-04-16T08:02:16.037Z,63.80
2017-04-16T08:03:15.897Z,63.50
2017-04-16T08:04:15.034Z,63.50
2017-04-16T08:05:14.138Z,63.30
2017-04-16T08:06:13.251Z,63.20
2017-04-16T08:07:12.386Z,63.80
2017-04-16T08:08:12.306Z,64.10
2017-04-16T08:09:11.413Z,63.90
2017-04-16T08:10:10.549Z,63.80
2017-04-16T08:11:09.649Z,64.10
2017-04-16T08:12:09.509Z,64.50
2017-04-16T08:13:08.626Z,64.50
2017-04-16T08:14:08.461Z,64.30
2017-04-16T08:15:07.573Z,64.80
2017-04-16T08:16:06.733Z,65.40
2017-04-16T08:17:05.886Z,65.80
2017-04-16T08:18:04.998Z,65.60
2017-04-16T08:19:04.114Z,66.30
2017-04-16T08:20:03.220Z,65.80
2017-04-16T08:21:02.329Z,66.50
2017-04-16T08:22:01.460Z,67.80
2017-04-16T08:23:00.565Z,69.20
2017-04-16T08:23:59.701Z,70.40
2017-04-16T08:24:59.553Z,70.40
2017-04-16T08:25:58.661Z,70.70
2017-04-16T08:26:57.823Z,69.80
2017-04-16T08:27:56.965Z,70.50
2017-04-16T08:28:56.998Z,70.00
2017-04-16T08:29:56.333Z,70.80
2017-04-16T08:30:55.465Z,70.50
2017-04-16T08:31:54.608Z,70.40
2017-04-16T08:32:53.741Z,69.50
2017-04-16T08:33:52.886Z,70.10
2017-04-16T08:34:52.021Z,69.10
2017-04-16T08:35:51.189Z,69.20
2017-04-16T08:36:51.062Z,69.40
2017-04-16T08:37:50.192Z,69.30
2017-04-16T08:38:49.354Z,68.70
2017-04-16T08:39:48.533Z,68.60
2017-04-16T08:40:47.665Z,69.40
2017-04-16T08:41:46.861Z,68.90
2017-04-16T08:42:46.061Z,68.80
2017-04-16T08:43:45.242Z,69.10
2017-04-16T08:44:44.381Z,69.60
2017-04-16T08:45:43.581Z,69.40
2017-04-16T08:46:42.985Z,69.70
2017-04-16T08:47:42.117Z,70.30
2017-04-16T08:48:41.689Z,69.60
2017-04-16T08:49:40.829Z,68.40
2017-04-16T08:50:40.025Z,67.00
2017-04-16T08:51:39.910Z,66.00
2017-04-16T08:52:39.043Z,66.90
2017-04-16T08:53:38.194Z,68.00
2017-04-16T08:54:37.389Z,65.40
2017-04-16T08:55:37.286Z,66.50
2017-04-16T08:56:36.461Z,67.10
2017-04-16T08:57:35.897Z,65.50
2017-04-16T08:58:35.037Z,65.00
2017-04-16T08:59:34.913Z,64.90
2017-04-16T09:00:34.061Z,64.60
2017-04-16T09:01:33.950Z,64.60
2017-04-16T09:02:33.917Z,66.00
2017-04-16T09:03:33.085Z,64.30
2017-04-16T09:04:32.273Z,63.20
2017-04-16T09:05:31.425Z,63.10
2017-04-16T09:06:31.254Z,62.50
2017-04-16T09:07:30.403Z,63.20
2017-04-16T09:08:31.836Z,62.60
2017-04-16T09:09:30.975Z,63.10
2017-04-16T09:10:30.129Z,63.30
2017-04-16T09:11:30.009Z,63.60
2017-04-16T09:12:29.169Z,63.30
2017-04-16T09:13:28.306Z,63.10
2017-04-16T09:14:28.302Z,61.20
2017-04-16T09:15:27.470Z,61.80
2017-04-16T09:16:26.615Z,61.40
2017-04-16T09:17:25.757Z,60.70
2017-04-16T09:18:24.898Z,60.20
2017-04-16T09:19:24.041Z,61.50
2017-04-16T09:20:23.623Z,62.40
2017-04-16T09:21:22.765Z,62.30
2017-04-16T09:22:21.930Z,62.10
2017-04-16T09:23:21.651Z,62.30
2017-04-16T09:24:21.437Z,61.70
2017-04-16T09:25:20.545Z,61.40
2017-04-16T09:26:19.698Z,61.30
2017-04-16T09:27:18.813Z,61.80
2017-04-16T09:28:17.950Z,61.80
2017-04-16T09:29:17.097Z,62.10
2017-04-16T09:30:16.231Z,61.50
2017-04-16T09:31:15.353Z,62.10
2017-04-16T09:32:14.510Z,61.30
2017-04-16T09:33:14.365Z,61.30
2017-04-16T09:34:13.582Z,61.40
2017-04-16T09:35:12.692Z,61.60
2017-04-16T09:36:12.560Z,61.50
2017-04-16T09:37:11.711Z,61.60
2017-04-16T09:38:11.253Z,59.40
2017-04-16T09:39:10.366Z,59.30
2017-04-16T09:40:10.213Z,59.50
2017-04-16T09:41:09.325Z,59.30
2017-04-16T09:42:08.473Z,58.90
2017-04-16T09:43:07.595Z,58.40
2017-04-16T09:44:06.746Z,57.30
2017-04-16T09:45:05.845Z,58.50
2017-04-16T09:46:04.951Z,58.90
2017-04-16T09:47:04.045Z,58.60
2017-04-16T09:48:03.278Z,58.70
2017-04-16T09:49:02.382Z,58.40
2017-04-16T09:50:01.510Z,58.70
2017-04-16T09:51:00.613Z,58.40
2017-04-16T09:51:59.729Z,56.10
2017-04-16T09:52:58.821Z,54.80
2017-04-16T09:53:57.950Z,55.20
2017-04-16T09:54:57.061Z,54.10
2017-04-16T09:55:56.385Z,54.20
2017-04-16T09:56:55.517Z,54.60
2017-04-16T09:57:54.625Z,54.20
2017-04-16T09:58:53.739Z,54.00
2017-04-16T09:59:52.853Z,53.90
2017-04-16T10:00:52.005Z,54.10
2017-04-16T10:01:51.153Z,53.90
2017-04-16T10:02:50.271Z,54.10
2017-04-16T10:03:49.378Z,54.00
2017-04-16T10:04:49.254Z,53.00
2017-04-16T10:05:48.363Z,52.60
2017-04-16T10:06:47.473Z,52.50
2017-04-16T10:07:46.615Z,51.40
2017-04-16T10:08:45.722Z,51.00
2017-04-16T10:09:44.845Z,50.60
2017-04-16T10:10:44.697Z,50.70
2017-04-16T10:11:43.805Z,50.90
2017-04-16T10:12:43.693Z,51.00
2017-04-16T10:13:42.845Z,49.70
2017-04-16T10:14:41.951Z,48.90
2017-04-16T10:15:41.058Z,48.60
2017-04-16T10:16:40.160Z,49.30
2017-04-16T10:17:39.270Z,49.30
2017-04-16T10:18:39.186Z,48.10
2017-04-16T10:19:39.065Z,47.00
2017-04-16T10:20:38.177Z,47.20
2017-04-16T10:21:37.286Z,47.90
2017-04-16T10:22:36.453Z,48.10
2017-04-16T10:23:35.557Z,48.50
2017-04-16T10:24:34.665Z,49.10
2017-04-16T10:25:33.977Z,50.30
2017-04-16T10:26:33.084Z,49.80
2017-04-16T10:27:32.944Z,47.90
2017-04-16T10:28:32.045Z,48.60
2017-04-16T10:30:30.574Z,47.50
2017-04-16T10:31:30.121Z,47.50
2017-04-16T10:32:29.233Z,47.80
2017-04-16T10:33:29.257Z,47.80
2017-04-16T10:34:28.398Z,48.60
2017-04-16T10:35:27.511Z,48.10
2017-04-16T10:36:27.357Z,48.70
2017-04-16T10:37:26.546Z,47.30
2017-04-16T10:38:25.673Z,47.50
2017-04-16T10:40:24.205Z,47.60
2017-04-16T10:41:23.314Z,47.30
2017-04-16T10:42:22.417Z,46.90
2017-04-16T10:43:21.576Z,45.80
2017-04-16T10:44:20.689Z,45.90
2017-04-16T10:46:19.238Z,46.20
2017-04-16T10:47:19.093Z,45.60
2017-04-16T10:48:18.948Z,46.50
2017-04-16T10:49:18.144Z,45.00
2017-04-16T10:50:17.258Z,44.10
2017-04-16T10:51:16.357Z,42.60
2017-04-16T10:52:16.219Z,43.20
2017-04-16T10:53:15.336Z,43.90
2017-04-16T10:54:14.445Z,41.80
2017-04-16T10:55:13.593Z,41.70
2017-04-16T10:56:12.694Z,42.30
2017-04-16T10:57:11.809Z,42.70
2017-04-16T10:58:10.916Z,42.20
2017-04-16T10:59:10.023Z,41.70
2017-04-16T11:00:09.133Z,41.70
2017-04-16T11:01:08.267Z,41.70
2017-04-16T11:02:07.377Z,41.90
2017-04-16T11:03:06.499Z,42.10
2017-04-16T11:04:05.625Z,42.20
2017-04-16T11:05:04.793Z,42.70
2017-04-16T11:06:04.665Z,41.80
2017-04-16T11:08:03.553Z,43.10
2017-04-16T11:09:02.733Z,41.60
2017-04-16T11:10:01.861Z,40.50
2017-04-16T11:11:00.997Z,40.80
2017-04-16T11:12:00.102Z,40.20
2017-04-16T11:12:59.381Z,40.90
2017-04-16T11:13:58.486Z,40.30
2017-04-16T11:14:57.669Z,41.30
2017-04-16T11:15:57.114Z,41.50
2017-04-16T11:16:56.250Z,41.90
2017-04-16T11:17:55.385Z,41.90
2017-04-16T11:18:54.582Z,41.50
2017-04-16T11:19:53.757Z,42.50
2017-04-16T11:20:52.896Z,42.70
2017-04-16T11:21:52.060Z,42.40
2017-04-16T11:22:51.229Z,42.10
2017-04-16T11:23:50.397Z,42.30
2017-04-16T11:24:49.554Z,42.50
2017-04-16T11:25:48.691Z,43.00
2017-04-16T11:26:47.837Z,43.30
2017-04-16T11:27:47.719Z,45.20
2017-04-16T11:28:46.897Z,46.70
2017-04-16T11:29:46.061Z,48.20
2017-04-16T11:30:45.225Z,48.90
2017-04-16T11:31:44.434Z,49.70
2017-04-16T11:32:43.573Z,50.70
2017-04-16T11:33:44.169Z,51.80
2017-04-16T11:34:43.307Z,52.90
2017-04-16T11:35:42.521Z,54.40
2017-04-16T11:36:41.649Z,55.50
2017-04-16T11:37:40.787Z,56.90
2017-04-16T11:38:39.930Z,57.80
2017-04-16T11:39:39.850Z,58.70
2017-04-16T11:40:38.988Z,59.50
2017-04-16T11:41:38.121Z,60.00
2017-04-16T11:42:37.998Z,60.30
2017-04-16T11:43:37.530Z,61.20
2017-04-16T11:44:36.679Z,61.50
2017-04-16T11:45:35.849Z,61.90
2017-04-16T11:46:34.986Z,62.20
2017-04-16T11:47:34.254Z,62.30
2017-04-16T11:48:33.381Z,62.20
2017-04-16T11:49:32.677Z,63.50
2017-04-16T11:50:31.813Z,64.20
2017-04-16T11:51:30.993Z,63.90
2017-04-16T11:52:30.130Z,64.20
2017-04-16T11:53:29.257Z,64.80
2017-04-16T11:54:28.393Z,63.80
2017-04-16T11:55:27.577Z,64.20
2017-04-16T11:56:26.709Z,65.10
2017-04-16T11:57:26.113Z,65.00
2017-04-16T11:58:25.249Z,65.00
2017-04-16T11:59:24.382Z,65.40
2017-04-16T12:00:23.525Z,65.50
2017-04-16T12:01:22.672Z,65.10
2017-04-16T12:02:21.803Z,65.40
2017-04-16T12:03:21.213Z,65.10
2017-04-16T12:04:20.341Z,64.50
2017-04-16T12:05:19.473Z,64.30
2017-04-16T12:06:18.597Z,64.30
2017-04-16T12:07:17.769Z,64.10
2017-04-16T12:08:16.885Z,63.90
2017-04-16T12:09:16.005Z,63.30
2017-04-16T12:10:15.172Z,62.50
2017-04-16T12:11:14.333Z,62.30
2017-04-16T12:12:13.461Z,62.20
2017-04-16T12:13:12.850Z,62.30
2017-04-16T12:14:12.013Z,60.80
2017-04-16T12:15:11.157Z,60.30
2017-04-16T12:16:10.325Z,60.70
2017-04-16T12:17:09.526Z,58.80
2017-04-16T12:18:08.658Z,58.90
2017-04-16T12:19:08.079Z,59.60
2017-04-16T12:20:07.230Z,60.90
2017-04-16T12:21:06.378Z,60.70
2017-04-16T12:22:05.522Z,61.40
2017-04-16T12:23:05.418Z,61.50
2017-04-16T12:24:04.557Z,60.80
2017-04-16T12:25:03.733Z,59.50
2017-04-16T12:26:02.865Z,58.40
2017-04-16T12:27:02.037Z,58.60
2017-04-16T12:28:01.185Z,59.30
2017-04-16T12:29:00.333Z,59.30
2017-04-16T12:29:59.465Z,62.70
2017-04-16T12:30:58.618Z,61.10
2017-04-16T12:31:57.749Z,58.70
2017-04-16T12:32:57.385Z,58.10
2017-04-16T12:33:56.545Z,58.10
2017-04-16T12:34:55.681Z,57.00
2017-04-16T12:35:55.558Z,58.40
2017-04-16T12:36:54.685Z,59.90
2017-04-16T12:37:54.564Z,58.70
2017-04-16T12:38:53.948Z,59.80
2017-04-16T12:39:53.083Z,57.00
2017-04-16T12:40:52.215Z,59.40
2017-04-16T12:41:51.380Z,58.80
2017-04-16T12:42:50.521Z,58.70
2017-04-16T12:43:49.650Z,60.40
2017-04-16T12:44:48.852Z,57.60
2017-04-16T12:48:41.367Z,53.80
2017-04-16T12:49:40.535Z,49.70
2017-04-16T12:50:40.430Z,52.00
2017-04-16T12:51:39.585Z,49.30
2017-04-16T12:52:38.739Z,46.50